createdAt,value
2023-05-11T00:00:29.572Z,11.94
2023-05-11T00:02:59.376Z,11.94
2023-05-11T00:05:29.163Z,11.94
2023-05-11T00:07:58.843Z,11.94
2023-05-11T00:10:28.566Z,11.94
2023-05-11T00:13:00.867Z,11.94
2023-05-11T00:15:30.595Z,11.94
2023-05-11T00:18:00.341Z,11.94
2023-05-11T00:20:30.169Z,11.93
2023-05-11T00:22:59.945Z,11.95
2023-05-11T00:25:29.604Z,11.95
2023-05-11T00:28:01.893Z,11.97
2023-05-11T00:30:31.646Z,11.99
2023-05-11T00:33:01.362Z,12.00
2023-05-11T00:35:32.044Z,12.01
2023-05-11T00:38:01.836Z,12.00
2023-05-11T00:40:32.029Z,12.00
2023-05-11T00:43:04.326Z,11.99
2023-05-11T00:45:35.322Z,11.99
2023-05-11T00:48:05.075Z,11.98
2023-05-11T00:50:34.926Z,11.97
2023-05-11T00:53:04.793Z,11.97
2023-05-11T00:55:34.509Z,12.00
2023-05-11T00:58:08.095Z,12.02
2023-05-11T01:00:37.834Z,12.06
2023-05-11T01:03:08.824Z,12.08
2023-05-11T01:05:51.586Z,12.13
2023-05-11T01:08:24.248Z,12.15
2023-05-11T01:11:00.191Z,12.19
2023-05-11T01:13:35.054Z,12.22
2023-05-11T01:16:09.445Z,12.25
2023-05-11T01:18:42.601Z,12.26
2023-05-11T01:21:18.873Z,12.28
2023-05-11T01:24:07.817Z,12.27
2023-05-11T01:26:47.244Z,12.25
2023-05-11T01:29:46.152Z,12.20
2023-05-11T01:32:23.862Z,12.14
2023-05-11T01:34:58.493Z,12.08
2023-05-11T01:37:28.966Z,12.04
2023-05-11T01:40:01.200Z,11.98
2023-05-11T01:42:35.156Z,11.93
2023-05-11T01:45:05.050Z,11.86
2023-05-11T01:47:38.173Z,11.79
2023-05-11T01:50:10.883Z,11.73
2023-05-11T01:52:41.920Z,11.69
2023-05-11T01:55:13.066Z,11.66
2023-05-11T01:57:43.281Z,11.62
2023-05-11T02:00:13.774Z,11.61
2023-05-11T02:02:47.934Z,11.57
2023-05-11T02:05:19.379Z,11.52
2023-05-11T02:07:50.713Z,11.48
2023-05-11T02:10:21.976Z,11.41
2023-05-11T02:12:52.924Z,11.33
2023-05-11T02:15:25.152Z,11.28
2023-05-11T02:17:58.312Z,11.20
2023-05-11T02:20:28.369Z,11.16
2023-05-11T02:22:59.018Z,11.13
2023-05-11T02:25:28.777Z,11.11
2023-05-11T02:27:58.518Z,11.10
2023-05-11T02:30:30.262Z,11.11
2023-05-11T02:33:07.512Z,11.10
2023-05-11T02:35:41.356Z,11.11
2023-05-11T02:38:12.343Z,11.11
2023-05-11T02:40:46.772Z,11.09
2023-05-11T02:43:18.873Z,11.06
2023-05-11T02:45:56.865Z,11.03
2023-05-11T02:48:31.511Z,10.99
2023-05-11T02:51:03.999Z,10.97
2023-05-11T02:53:39.439Z,10.95
2023-05-11T02:56:09.898Z,10.93
2023-05-11T02:58:40.379Z,10.90
2023-05-11T03:01:31.127Z,10.84
2023-05-11T03:04:06.947Z,10.77
2023-05-11T03:06:36.794Z,10.68
2023-05-11T03:09:10.276Z,10.58
2023-05-11T03:11:45.136Z,10.48
2023-05-11T03:14:15.142Z,10.39
2023-05-11T03:16:46.224Z,10.40
2023-05-11T03:19:20.098Z,10.50
2023-05-11T03:21:49.868Z,10.61
2023-05-11T03:24:19.975Z,10.73
2023-05-11T03:26:50.921Z,10.82
2023-05-11T03:29:21.006Z,10.92
2023-05-11T03:31:51.395Z,10.99
2023-05-11T03:34:25.254Z,11.07
2023-05-11T03:36:55.824Z,11.13
2023-05-11T03:39:25.827Z,11.18
2023-05-11T03:41:56.383Z,11.23
2023-05-11T03:44:27.054Z,11.26
2023-05-11T03:46:57.727Z,11.28
2023-05-11T03:49:30.242Z,11.34
2023-05-11T03:52:00.264Z,11.39
2023-05-11T03:54:30.000Z,11.43
2023-05-11T03:56:59.711Z,11.47
2023-05-11T03:59:29.567Z,11.51
2023-05-11T04:01:59.485Z,11.56
2023-05-11T04:04:34.016Z,11.60
2023-05-11T04:07:04.190Z,11.62
2023-05-11T04:09:34.246Z,11.65
2023-05-11T04:12:04.141Z,11.67
2023-05-11T04:14:33.811Z,11.69
2023-05-11T04:17:04.183Z,11.73
2023-05-11T04:19:36.439Z,11.80
2023-05-11T04:22:06.115Z,11.83
2023-05-11T04:24:35.814Z,11.87
2023-05-11T04:27:05.556Z,11.91
2023-05-11T04:29:35.323Z,11.94
2023-05-11T04:32:04.999Z,11.96
2023-05-11T04:34:37.391Z,11.96
2023-05-11T04:37:08.723Z,11.97
2023-05-11T04:39:39.846Z,12.00
2023-05-11T04:42:09.542Z,12.02
2023-05-11T04:44:39.503Z,12.05
2023-05-11T04:47:09.875Z,12.06
2023-05-11T04:49:44.290Z,12.08
2023-05-11T04:52:14.330Z,12.10
2023-05-11T04:54:46.997Z,12.12
2023-05-11T04:57:16.689Z,12.17
2023-05-11T04:59:46.503Z,12.22
2023-05-11T05:02:16.246Z,12.27
2023-05-11T05:04:48.507Z,12.34
2023-05-11T05:07:18.167Z,12.43
2023-05-11T05:09:48.346Z,12.49
2023-05-11T05:12:18.491Z,12.55
2023-05-11T05:14:48.161Z,12.61
2023-05-11T05:17:17.826Z,12.67
2023-05-11T05:19:50.642Z,12.73
2023-05-11T05:22:20.333Z,12.75
2023-05-11T05:24:50.056Z,12.74
2023-05-11T05:27:20.301Z,12.75
2023-05-11T05:29:50.011Z,12.75
2023-05-11T05:32:19.802Z,12.76
2023-05-11T05:34:52.069Z,12.79
2023-05-11T05:37:22.412Z,12.83
2023-05-11T05:39:52.153Z,12.86
2023-05-11T05:42:22.565Z,12.94
2023-05-11T05:44:53.038Z,13.06
2023-05-11T05:47:22.993Z,13.22
2023-05-11T05:49:55.284Z,13.36
2023-05-11T05:52:25.071Z,13.47
2023-05-11T05:54:55.239Z,13.57
2023-05-11T05:57:25.067Z,13.64
2023-05-11T05:59:55.464Z,13.66
2023-05-11T06:02:25.328Z,13.66
2023-05-11T06:04:59.239Z,13.61
2023-05-11T06:07:29.043Z,13.56
2023-05-11T06:09:58.704Z,13.51
2023-05-11T06:12:28.481Z,13.50
2023-05-11T06:14:59.427Z,13.51
2023-05-11T06:17:29.385Z,13.57
2023-05-11T06:20:02.408Z,13.68
2023-05-11T06:22:33.650Z,13.80
2023-05-11T06:25:03.615Z,13.90
2023-05-11T06:27:33.350Z,13.98
2023-05-11T06:30:03.250Z,14.05
2023-05-11T06:32:36.690Z,14.10
2023-05-11T06:35:10.944Z,14.15
2023-05-11T06:37:40.615Z,14.28
2023-05-11T06:40:12.158Z,14.41
2023-05-11T06:42:41.839Z,14.48
2023-05-11T06:45:14.084Z,14.51
2023-05-11T06:47:45.673Z,14.64
2023-05-11T06:50:20.150Z,14.89
2023-05-11T06:52:51.043Z,15.17
2023-05-11T06:55:20.755Z,15.51
2023-05-11T06:57:50.443Z,15.84
2023-05-11T07:00:21.328Z,16.13
2023-05-11T07:02:51.150Z,16.38
2023-05-11T07:05:23.902Z,16.62
2023-05-11T07:07:53.607Z,17.00
2023-05-11T07:10:23.313Z,17.50
2023-05-11T07:12:53.184Z,17.73
2023-05-11T07:15:22.879Z,17.83
2023-05-11T07:17:52.871Z,17.92
2023-05-11T07:20:25.285Z,18.06
2023-05-11T07:22:55.015Z,18.24
2023-05-11T07:25:25.154Z,18.47
2023-05-11T07:27:54.822Z,18.70
2023-05-11T07:30:25.517Z,18.89
2023-05-11T07:32:55.854Z,19.06
2023-05-11T07:35:28.271Z,19.29
2023-05-11T07:37:57.959Z,19.97
2023-05-11T07:40:27.682Z,20.85
2023-05-11T07:42:57.358Z,21.72
2023-05-11T07:45:27.517Z,22.63
2023-05-11T07:47:57.775Z,23.21
2023-05-11T07:50:30.290Z,23.37
2023-05-11T07:53:00.452Z,23.94
2023-05-11T07:55:30.776Z,24.44
2023-05-11T07:58:00.557Z,25.05
2023-05-11T08:00:30.403Z,25.75
2023-05-11T08:03:00.734Z,26.22
2023-05-11T08:05:37.508Z,26.79
2023-05-11T08:08:07.975Z,27.63
2023-05-11T08:10:39.200Z,28.42
2023-05-11T08:13:09.046Z,29.10
2023-05-11T08:15:38.719Z,29.83
2023-05-11T08:18:09.412Z,30.57
2023-05-11T08:20:42.369Z,31.24
2023-05-11T08:23:17.320Z,31.78
2023-05-11T08:25:52.760Z,32.11
2023-05-11T08:28:22.772Z,32.27
2023-05-11T08:30:57.065Z,32.31
2023-05-11T08:36:04.007Z,32.35
2023-05-11T08:38:33.739Z,31.00
2023-05-11T08:41:05.050Z,29.40
2023-05-11T08:43:35.643Z,27.81
2023-05-11T08:46:07.642Z,26.31
2023-05-11T08:48:38.098Z,24.91
2023-05-11T08:51:10.563Z,23.71
2023-05-11T08:53:40.258Z,22.74
2023-05-11T08:56:11.965Z,21.82
2023-05-11T08:58:43.087Z,20.99
2023-05-11T09:01:13.230Z,20.36
2023-05-11T09:03:43.391Z,19.90
2023-05-11T09:06:15.958Z,19.51
2023-05-11T09:08:46.568Z,19.17
2023-05-11T09:11:16.500Z,18.89
2023-05-11T09:13:46.353Z,18.68
2023-05-11T09:16:35.757Z,18.57
2023-05-11T09:19:06.569Z,18.55
2023-05-11T09:21:41.496Z,18.59
2023-05-11T09:24:14.328Z,18.66
2023-05-11T09:26:44.109Z,18.84
2023-05-11T09:29:13.779Z,18.99
2023-05-11T09:31:45.459Z,19.02
2023-05-11T09:34:19.914Z,19.06
2023-05-11T09:36:54.042Z,19.07
2023-05-11T09:39:39.184Z,19.13
2023-05-11T09:42:18.169Z,19.30
2023-05-11T09:44:48.842Z,19.51
2023-05-11T09:47:19.647Z,19.82
2023-05-11T09:49:50.206Z,20.18
2023-05-11T09:52:23.355Z,20.66
2023-05-11T09:54:54.630Z,21.34
2023-05-11T09:57:29.035Z,22.00
2023-05-11T09:59:59.839Z,22.40
2023-05-11T10:02:30.811Z,22.78
2023-05-11T10:05:02.125Z,23.16
2023-05-11T10:07:35.475Z,23.43
2023-05-11T10:10:07.358Z,23.48
2023-05-11T10:12:38.752Z,23.29
2023-05-11T10:15:10.711Z,22.95
2023-05-11T10:17:44.737Z,22.68
2023-05-11T10:20:15.692Z,22.56
2023-05-11T10:22:48.796Z,22.52
2023-05-11T10:25:18.784Z,22.53
2023-05-11T10:27:48.725Z,22.57
2023-05-11T10:30:19.285Z,22.65
2023-05-11T10:32:49.718Z,22.67
2023-05-11T10:35:19.449Z,22.67
2023-05-11T10:37:53.693Z,22.78
2023-05-11T10:40:23.895Z,22.93
2023-05-11T10:43:12.799Z,23.03
2023-05-11T10:45:51.346Z,23.10
2023-05-11T10:48:35.563Z,23.18
2023-05-11T10:51:18.676Z,23.26
2023-05-11T10:54:18.003Z,23.25
2023-05-11T10:57:01.014Z,23.23
2023-05-11T10:59:53.658Z,23.23
2023-05-11T11:02:24.599Z,23.21
2023-05-11T11:04:55.123Z,23.08
2023-05-11T11:07:24.852Z,22.85
2023-05-11T11:10:00.352Z,22.49
2023-05-11T11:12:31.277Z,22.09
2023-05-11T11:15:02.440Z,21.77
2023-05-11T11:17:32.979Z,21.47
2023-05-11T11:20:04.529Z,21.28
2023-05-11T11:22:47.688Z,21.17
2023-05-11T11:25:56.577Z,21.10
2023-05-11T11:28:26.335Z,21.09
2023-05-11T11:31:28.994Z,21.13
2023-05-11T11:34:00.974Z,21.27
2023-05-11T11:37:04.248Z,21.29
2023-05-11T11:40:13.188Z,21.25
2023-05-11T11:42:47.697Z,21.10
2023-05-11T11:45:35.402Z,20.98
2023-05-11T11:48:13.615Z,20.94
2023-05-11T11:50:45.152Z,20.96
2023-05-11T11:53:17.264Z,21.06
2023-05-11T11:55:51.998Z,21.20
2023-05-11T11:58:58.177Z,21.30
2023-05-11T12:01:32.185Z,21.16
2023-05-11T12:04:33.350Z,20.95
2023-05-11T12:07:03.596Z,20.76
2023-05-11T12:09:33.310Z,20.55
2023-05-11T12:12:04.134Z,20.37
2023-05-11T12:14:34.665Z,20.23
2023-05-11T12:17:15.440Z,20.17
2023-05-11T12:19:48.272Z,20.14
2023-05-11T12:22:17.982Z,20.12
2023-05-11T12:24:47.693Z,20.16
2023-05-11T12:27:19.916Z,20.14
2023-05-11T12:29:52.898Z,20.19
2023-05-11T12:32:32.550Z,20.28
2023-05-11T12:35:04.425Z,20.38
2023-05-11T12:37:34.616Z,20.45
2023-05-11T12:40:04.316Z,20.43
2023-05-11T12:42:35.333Z,20.40
2023-05-11T12:45:05.795Z,20.37
2023-05-11T12:47:38.411Z,20.42
2023-05-11T12:50:09.564Z,20.50
2023-05-11T12:52:39.256Z,20.50
2023-05-11T12:55:11.581Z,20.53
2023-05-11T12:57:42.013Z,20.67
2023-05-11T13:00:14.866Z,20.82
2023-05-11T13:02:52.784Z,20.95
2023-05-11T13:05:26.554Z,21.02
2023-05-11T13:08:02.605Z,21.11
2023-05-11T13:10:32.479Z,21.24
2023-05-11T13:13:02.528Z,21.30
2023-05-11T13:15:32.224Z,21.32
2023-05-11T13:18:05.527Z,21.32
2023-05-11T13:20:36.571Z,21.34
2023-05-11T13:23:08.712Z,21.27
2023-05-11T13:25:54.598Z,21.23
2023-05-11T13:28:26.579Z,21.18
2023-05-11T13:31:02.056Z,21.06
2023-05-11T13:33:34.811Z,21.03
2023-05-11T13:36:04.870Z,21.04
2023-05-11T13:38:34.550Z,21.05
2023-05-11T13:41:04.220Z,21.06
2023-05-11T13:43:33.919Z,21.04
2023-05-11T13:46:05.030Z,21.00
2023-05-11T13:48:37.311Z,20.91
2023-05-11T13:51:07.060Z,20.90
2023-05-11T13:53:36.720Z,20.90
2023-05-11T13:56:06.961Z,20.92
2023-05-11T13:58:36.802Z,20.92
2023-05-11T14:01:08.562Z,20.94
2023-05-11T14:03:42.373Z,20.95
2023-05-11T14:06:12.133Z,20.96
2023-05-11T14:08:41.793Z,21.01
2023-05-11T14:11:11.661Z,21.04
2023-05-11T14:13:41.349Z,21.04
2023-05-11T14:16:11.480Z,21.00
2023-05-11T14:18:44.511Z,21.01
2023-05-11T14:21:14.526Z,21.05
2023-05-11T14:23:57.830Z,21.10
2023-05-11T14:26:33.922Z,21.11
2023-05-11T14:29:03.600Z,21.00
2023-05-11T14:31:33.801Z,20.77
2023-05-11T14:34:06.511Z,20.45
2023-05-11T14:36:36.328Z,19.91
2023-05-11T14:39:06.271Z,19.31
2023-05-11T14:41:36.116Z,18.63
2023-05-11T14:44:05.806Z,17.80
2023-05-11T14:46:35.534Z,16.57
2023-05-11T14:49:07.874Z,15.56
2023-05-11T14:51:39.429Z,14.83
2023-05-11T14:54:09.378Z,14.37
2023-05-11T14:56:39.399Z,14.16
2023-05-11T14:59:09.113Z,14.03
2023-05-11T15:01:39.276Z,13.97
2023-05-11T15:04:11.602Z,13.94
2023-05-11T15:06:41.297Z,13.97
2023-05-11T15:09:11.056Z,14.05
2023-05-11T15:11:40.805Z,14.16
2023-05-11T15:14:10.795Z,14.26
2023-05-11T15:16:40.845Z,14.33
2023-05-11T15:19:13.344Z,14.37
2023-05-11T15:21:43.179Z,14.42
2023-05-11T15:24:12.846Z,14.49
2023-05-11T15:26:42.561Z,14.52
2023-05-11T15:29:12.290Z,14.58
2023-05-11T15:31:41.960Z,14.61
2023-05-11T15:34:14.232Z,14.70
2023-05-11T15:36:44.222Z,14.80
2023-05-11T15:39:13.906Z,14.90
2023-05-11T15:41:43.635Z,14.95
2023-05-11T15:44:13.494Z,14.95
2023-05-11T15:46:43.211Z,14.92
2023-05-11T15:49:16.040Z,14.89
2023-05-11T15:51:45.813Z,14.90
2023-05-11T15:54:15.576Z,14.91
2023-05-11T15:56:45.856Z,14.91
2023-05-11T15:59:15.853Z,14.89
2023-05-11T16:01:45.674Z,14.85
2023-05-11T16:04:18.066Z,14.81
2023-05-11T16:06:47.769Z,14.78
2023-05-11T16:09:18.133Z,14.74
2023-05-11T16:11:47.844Z,14.52
2023-05-11T16:14:17.777Z,14.18
2023-05-11T16:16:47.552Z,13.71
2023-05-11T16:19:19.843Z,13.27
2023-05-11T16:21:49.514Z,12.99
2023-05-11T16:24:19.204Z,12.84
2023-05-11T16:26:48.867Z,12.80
2023-05-11T16:29:18.559Z,12.76
2023-05-11T16:31:48.320Z,12.76
2023-05-11T16:34:20.905Z,12.78
2023-05-11T16:36:50.597Z,12.84
2023-05-11T16:39:20.330Z,12.89
2023-05-11T16:41:50.046Z,12.90
2023-05-11T16:44:19.738Z,12.93
2023-05-11T16:46:49.652Z,12.98
2023-05-11T16:49:22.095Z,13.05
2023-05-11T16:51:52.577Z,13.13
2023-05-11T16:54:22.773Z,13.25
2023-05-11T16:56:52.494Z,13.34
2023-05-11T16:59:22.416Z,13.41
2023-05-11T17:01:52.230Z,13.43
2023-05-11T17:04:24.590Z,13.48
2023-05-11T17:06:54.277Z,13.51
2023-05-11T17:09:23.949Z,13.58
2023-05-11T17:11:53.635Z,13.64
2023-05-11T17:14:23.576Z,13.65
2023-05-11T17:16:53.258Z,13.66
2023-05-11T17:19:25.504Z,13.73
2023-05-11T17:21:55.280Z,13.77
2023-05-11T17:24:25.542Z,13.79
2023-05-11T17:26:55.311Z,13.78
2023-05-11T17:29:25.051Z,13.79
2023-05-11T17:31:54.816Z,13.78
2023-05-11T17:34:28.553Z,13.79
2023-05-11T17:36:58.654Z,13.80
2023-05-11T17:39:30.867Z,13.79
2023-05-11T17:42:00.731Z,13.79
2023-05-11T17:44:30.582Z,13.77
2023-05-11T17:47:00.274Z,13.76
2023-05-11T17:49:32.563Z,13.74
2023-05-11T17:52:02.256Z,13.73
2023-05-11T17:54:32.370Z,13.74
2023-05-11T17:57:02.065Z,13.74
2023-05-11T17:59:31.820Z,13.74
2023-05-11T18:02:01.693Z,13.71
2023-05-11T18:04:34.037Z,13.68
2023-05-11T18:07:04.123Z,13.64
2023-05-11T18:09:34.395Z,13.64
2023-05-11T18:12:04.479Z,13.61
2023-05-11T18:14:34.259Z,13.60
2023-05-11T18:17:04.643Z,13.59
2023-05-11T18:19:37.049Z,13.55
2023-05-11T18:22:07.187Z,13.52
2023-05-11T18:24:36.846Z,13.48
2023-05-11T18:27:06.910Z,13.43
2023-05-11T18:29:37.552Z,13.40
2023-05-11T18:32:07.705Z,13.37
2023-05-11T18:34:41.661Z,13.34
2023-05-11T18:37:11.873Z,13.31
2023-05-11T18:39:41.566Z,13.28
2023-05-11T18:42:11.262Z,13.28
2023-05-11T18:44:41.376Z,13.28
2023-05-11T18:47:11.946Z,13.27
2023-05-11T18:49:44.286Z,13.27
2023-05-11T18:52:13.962Z,13.28
2023-05-11T18:54:43.781Z,13.28
2023-05-11T18:57:18.778Z,13.28
2023-05-11T18:59:48.595Z,13.29
2023-05-11T19:02:18.384Z,13.28
2023-05-11T19:04:50.747Z,13.25
2023-05-11T19:07:20.737Z,13.25
2023-05-11T19:09:51.212Z,13.23
2023-05-11T19:12:20.922Z,13.23
2023-05-11T19:14:50.636Z,13.23
2023-05-11T19:17:20.335Z,13.24
2023-05-11T19:19:52.656Z,13.25
2023-05-11T19:22:22.383Z,13.25
2023-05-11T19:24:53.073Z,13.25
2023-05-11T19:27:22.779Z,13.24
2023-05-11T19:29:52.490Z,13.24
2023-05-11T19:32:23.559Z,13.24
2023-05-11T19:34:55.847Z,13.24
2023-05-11T19:37:25.772Z,13.23
2023-05-11T19:40:06.263Z,13.23
2023-05-11T19:42:46.791Z,13.24
2023-05-11T19:45:17.180Z,13.23
2023-05-11T19:47:46.915Z,13.23
2023-05-11T19:50:21.774Z,13.22
2023-05-11T19:52:53.392Z,13.22
2023-05-11T19:55:23.258Z,13.21
2023-05-11T19:57:53.774Z,13.21
2023-05-11T20:00:25.289Z,13.21
2023-05-11T20:02:55.328Z,13.19
2023-05-11T20:05:27.980Z,13.18
2023-05-11T20:07:57.653Z,13.17
2023-05-11T20:10:27.505Z,13.18
2023-05-11T20:12:57.825Z,13.19
2023-05-11T20:15:27.542Z,13.18
2023-05-11T20:17:57.272Z,13.17
2023-05-11T20:20:29.734Z,13.17
2023-05-11T20:22:59.538Z,13.16
2023-05-11T20:25:29.436Z,13.15
2023-05-11T20:27:59.179Z,13.13
2023-05-11T20:30:28.859Z,13.12
2023-05-11T20:35:34.663Z,13.12
2023-05-11T20:38:04.700Z,13.13
2023-05-11T20:40:34.387Z,13.15
2023-05-11T20:43:04.099Z,13.16
2023-05-11T20:45:34.030Z,13.17
2023-05-11T20:48:03.798Z,13.17
2023-05-11T20:50:36.119Z,13.16
2023-05-11T20:53:06.148Z,13.16
2023-05-11T20:55:35.953Z,13.15
2023-05-11T20:58:05.629Z,13.14
2023-05-11T21:00:35.398Z,13.11
2023-05-11T21:03:05.185Z,13.10
2023-05-11T21:05:37.589Z,13.09
2023-05-11T21:08:07.379Z,13.08
2023-05-11T21:10:37.113Z,13.06
2023-05-11T21:13:06.768Z,13.03
2023-05-11T21:15:36.745Z,13.02
2023-05-11T21:18:07.036Z,12.97
2023-05-11T21:20:39.490Z,12.96
2023-05-11T21:23:09.171Z,12.94
2023-05-11T21:25:39.392Z,12.93
2023-05-11T21:28:09.105Z,12.92
2023-05-11T21:30:38.833Z,12.92
2023-05-11T21:33:08.598Z,12.91
2023-05-11T21:35:40.964Z,12.89
2023-05-11T21:38:12.368Z,12.88
2023-05-11T21:40:42.244Z,12.87
2023-05-11T21:43:13.834Z,12.86
2023-05-11T21:45:43.755Z,12.88
2023-05-11T21:48:13.495Z,12.87
2023-05-11T21:50:45.837Z,12.89
2023-05-11T21:53:15.594Z,12.90
2023-05-11T21:55:45.272Z,12.90
2023-05-11T21:58:15.052Z,12.91
2023-05-11T22:00:44.773Z,12.91
2023-05-11T22:03:14.569Z,12.91
2023-05-11T22:05:46.916Z,12.93
2023-05-11T22:08:16.706Z,12.93
2023-05-11T22:10:46.417Z,12.97
2023-05-11T22:13:16.135Z,12.98
2023-05-11T22:15:45.838Z,12.99
2023-05-11T22:18:15.577Z,13.02
2023-05-11T22:20:48.057Z,13.02
2023-05-11T22:23:17.719Z,13.05
2023-05-11T22:25:47.455Z,13.06
2023-05-11T22:28:17.090Z,13.06
2023-05-11T22:30:46.815Z,13.08
2023-05-11T22:33:16.462Z,13.09
2023-05-11T22:35:48.733Z,13.08
2023-05-11T22:38:18.440Z,13.06
2023-05-11T22:40:48.153Z,13.06
2023-05-11T22:43:17.872Z,13.04
2023-05-11T22:45:48.444Z,13.04
2023-05-11T22:48:18.140Z,13.03
2023-05-11T22:50:50.473Z,13.00
2023-05-11T22:53:21.146Z,12.98
2023-05-11T22:55:50.841Z,12.96
2023-05-11T22:58:20.555Z,12.93
2023-05-11T23:00:54.715Z,12.92
2023-05-11T23:03:24.619Z,12.88
2023-05-11T23:05:57.285Z,12.85
2023-05-11T23:08:26.940Z,12.85
2023-05-11T23:10:56.661Z,12.84
2023-05-11T23:13:26.486Z,12.84
2023-05-11T23:15:56.159Z,12.84
2023-05-11T23:18:26.100Z,12.84
2023-05-11T23:21:01.336Z,12.85
2023-05-11T23:23:31.422Z,12.84
2023-05-11T23:26:03.536Z,12.81
2023-05-11T23:28:33.198Z,12.81
2023-05-11T23:31:02.866Z,12.82
2023-05-11T23:33:32.927Z,12.83
2023-05-11T23:36:05.188Z,12.85
2023-05-11T23:38:34.864Z,12.85
2023-05-11T23:41:04.556Z,12.86
2023-05-11T23:43:34.219Z,12.85
2023-05-11T23:46:03.966Z,12.89
2023-05-11T23:48:33.655Z,12.90
2023-05-11T23:51:06.054Z,12.91
2023-05-11T23:53:35.701Z,12.91
2023-05-11T23:56:05.386Z,12.93
2023-05-11T23:58:35.090Z,12.93
